Miami — WDF6958 — position and weather

sailwx.info

Track history (hours):
 
Tides and Currents Weather Stations Pressure Air Temp Water Temp Dewpoint Dewpoint Depression Visibility Wind Speed Wind Dir Waves Ship Positions

Miami

More information available from US FCC via Universal Licensing System and Coast Guard Vessel Documentation Center.

Last reported at 2014-Sep-23 16:27 UTC. Time now 2014-Sep-23 20:28 UTC.
Position N 25°46' W 080°10'.

Length 23 m; draft 4 m.

Type: Other ship. MMSI: 367479630.

Date/timePositionNaut miles runAvg speedWind from/ knotsBaromVisibWave heightAir tempDewpointWater temp
2014-Sep-23 16:27N 25°46' W 080°10'1 0.0
2014-Sep-22 17:33N 25°47' W 080°11'0 0.0
2014-Sep-22 12:32N 25°47' W 080°10'0 0.0
2014-Sep-22 11:33N 25°47' W 080°10'0 0.0
2014-Sep-22 10:31N 25°47' W 080°10'0 0.0
2014-Sep-22 09:22N 25°47' W 080°10'0 0.0
2014-Sep-22 08:14N 25°47' W 080°10'0 0.0
2014-Sep-22 07:32N 25°47' W 080°10'0 0.0
2014-Sep-22 06:33N 25°47' W 080°10'0 0.0
2014-Sep-22 05:33N 25°47' W 080°10'0 0.0
2014-Sep-22 04:10N 25°47' W 080°10'0 0.0
2014-Sep-22 03:32N 25°47' W 080°10'0 0.0
2014-Sep-22 02:33N 25°47' W 080°10'0 0.0
2014-Sep-22 01:30N 25°47' W 080°10'0 0.0
2014-Sep-22 00:29N 25°47' W 080°10'1 0.1
2014-Sep-21 20:30N 25°46' W 080°10'1 0.2
2014-Sep-21 17:27N 25°47' W 080°10'0 0.0
2014-Sep-21 16:32N 25°47' W 080°10'0 0.0
2014-Sep-21 15:32N 25°47' W 080°10'0 0.0
2014-Sep-21 14:26N 25°47' W 080°10'0 0.0
2014-Sep-21 13:32N 25°47' W 080°10'0 0.2
2014-Sep-21 11:33N 25°47' W 080°11'0 0.0
2014-Sep-21 10:33N 25°47' W 080°11'0 0.0
2014-Sep-21 09:33N 25°47' W 080°11'0 0.0
2014-Sep-21 08:33N 25°47' W 080°11'0 0.0
2014-Sep-21 07:33N 25°47' W 080°11'0 0.0
2014-Sep-21 06:20N 25°47' W 080°11'0 0.0
2014-Sep-21 05:31N 25°47' W 080°11'0 0.0
2014-Sep-21 04:28N 25°47' W 080°11'0 0.0
2014-Sep-21 03:31N 25°47' W 080°11'0 0.0
2014-Sep-21 02:33N 25°47' W 080°11'0 0.0
2014-Sep-21 01:33N 25°47' W 080°11'0 0.0
2014-Sep-21 00:30N 25°47' W 080°11'0 0.0
2014-Sep-20 23:33N 25°47' W 080°11'0 0.0
2014-Sep-20 22:28N 25°47' W 080°11'0 0.0
2014-Sep-20 21:33N 25°47' W 080°11'0 0.0
2014-Sep-20 20:32N 25°47' W 080°11'2 1.6
2014-Sep-20 19:30N 25°46' W 080°09'0 0.3
2014-Sep-20 18:06N 25°46' W 080°10'1 1.7
2014-Sep-20 17:19N 25°47' W 080°11'0 0.0
2014-Sep-19 17:33N 25°47' W 080°11'0 0.0
2014-Sep-19 16:33N 25°47' W 080°11'0 0.0
2014-Sep-19 15:25N 25°47' W 080°11'0 0.0
2014-Sep-19 14:28N 25°47' W 080°11'0 0.0
2014-Sep-19 13:31N 25°47' W 080°11'0 0.0
2014-Sep-19 12:05N 25°47' W 080°11'2 0.1
2014-Sep-18 12:15N 25°46' W 080°09'1 0.1
2014-Sep-17 11:25N 25°46' W 080°10'0 0.1
2014-Sep-17 07:13N 25°46' W 080°11'2 0.1
2014-Sep-16 17:26N 25°46' W 080°09'1 1.0
2014-Sep-16 16:23N 25°47' W 080°10'0 0.0
2014-Sep-16 15:16N 25°47' W 080°10'0 0.0
2014-Sep-16 10:32N 25°47' W 080°10'0 0.0
2014-Sep-16 09:28N 25°47' W 080°10'0 0.0
2014-Sep-16 08:16N 25°47' W 080°10'0 0.0
2014-Sep-16 07:33N 25°47' W 080°10'0 0.0
2014-Sep-16 05:15N 25°47' W 080°10'0 0.0
2014-Sep-16 04:28N 25°47' W 080°10'0 0.0
2014-Sep-16 03:32N 25°47' W 080°10'0 0.0
2014-Sep-16 02:06N 25°47' W 080°10'0 0.0
2014-Sep-16 00:09N 25°47' W 080°10'0 0.0
2014-Sep-15 23:04N 25°47' W 080°10'2 2.9
2014-Sep-15 22:13N 25°46' W 080°07'3 0.7
2014-Sep-15 18:26N 25°47' W 080°10'0 0.0
2014-Sep-15 13:19N 25°47' W 080°10'2 0.2
2014-Sep-14 22:33N 25°46' W 080°08'3 0.5
2014-Sep-14 17:12N 25°47' W 080°10'0 0.0
2014-Sep-14 16:33N 25°47' W 080°10'0 0.0
2014-Sep-14 15:32N 25°47' W 080°10'0 0.0
2014-Sep-14 14:32N 25°47' W 080°10'0 0.0
2014-Sep-14 13:21N 25°47' W 080°10'0 0.0
2014-Sep-14 12:33N 25°47' W 080°10'1 0.5
2014-Sep-14 11:10N 25°46' W 080°10'1 1.6
2014-Sep-14 10:19N 25°46' W 080°09'1 0.1
2014-Sep-13 17:18N 25°47' W 080°10'  
Track history (hours):
 
Tides and Currents Weather Stations Pressure Air Temp Water Temp Dewpoint Dewpoint Depression Visibility Wind Speed Wind Dir Waves Ship Positions

Miami

More information available from US FCC via Universal Licensing System and Coast Guard Vessel Documentation Center.

Last reported at 2014-Sep-23 16:27 UTC. Time now 2014-Sep-23 20:28 UTC.
Position N 25°46' W 080°10'.

Length 23 m; draft 4 m.

Type: Other ship. MMSI: 367479630.

Date/timePositionNaut miles runAvg speedWind from/ knotsBaromVisibWave heightAir tempDewpointWater temp
2014-Sep-23 16:27N 25°46' W 080°10'1 0.0
2014-Sep-22 17:33N 25°47' W 080°11'0 0.0
2014-Sep-22 12:32N 25°47' W 080°10'0 0.0
2014-Sep-22 11:33N 25°47' W 080°10'0 0.0
2014-Sep-22 10:31N 25°47' W 080°10'0 0.0
2014-Sep-22 09:22N 25°47' W 080°10'0 0.0
2014-Sep-22 08:14N 25°47' W 080°10'0 0.0
2014-Sep-22 07:32N 25°47' W 080°10'0 0.0
2014-Sep-22 06:33N 25°47' W 080°10'0 0.0
2014-Sep-22 05:33N 25°47' W 080°10'0 0.0
2014-Sep-22 04:10N 25°47' W 080°10'0 0.0
2014-Sep-22 03:32N 25°47' W 080°10'0 0.0
2014-Sep-22 02:33N 25°47' W 080°10'0 0.0
2014-Sep-22 01:30N 25°47' W 080°10'0 0.0
2014-Sep-22 00:29N 25°47' W 080°10'1 0.1
2014-Sep-21 20:30N 25°46' W 080°10'1 0.2
2014-Sep-21 17:27N 25°47' W 080°10'0 0.0
2014-Sep-21 16:32N 25°47' W 080°10'0 0.0
2014-Sep-21 15:32N 25°47' W 080°10'0 0.0
2014-Sep-21 14:26N 25°47' W 080°10'0 0.0
2014-Sep-21 13:32N 25°47' W 080°10'0 0.2
2014-Sep-21 11:33N 25°47' W 080°11'0 0.0
2014-Sep-21 10:33N 25°47' W 080°11'0 0.0
2014-Sep-21 09:33N 25°47' W 080°11'0 0.0
2014-Sep-21 08:33N 25°47' W 080°11'0 0.0
2014-Sep-21 07:33N 25°47' W 080°11'0 0.0
2014-Sep-21 06:20N 25°47' W 080°11'0 0.0
2014-Sep-21 05:31N 25°47' W 080°11'0 0.0
2014-Sep-21 04:28N 25°47' W 080°11'0 0.0
2014-Sep-21 03:31N 25°47' W 080°11'0 0.0
2014-Sep-21 02:33N 25°47' W 080°11'0 0.0
2014-Sep-21 01:33N 25°47' W 080°11'0 0.0
2014-Sep-21 00:30N 25°47' W 080°11'0 0.0
2014-Sep-20 23:33N 25°47' W 080°11'0 0.0
2014-Sep-20 22:28N 25°47' W 080°11'0 0.0
2014-Sep-20 21:33N 25°47' W 080°11'0 0.0
2014-Sep-20 20:32N 25°47' W 080°11'2 1.6
2014-Sep-20 19:30N 25°46' W 080°09'0 0.3
2014-Sep-20 18:06N 25°46' W 080°10'1 1.7
2014-Sep-20 17:19N 25°47' W 080°11'0 0.0
2014-Sep-19 17:33N 25°47' W 080°11'0 0.0
2014-Sep-19 16:33N 25°47' W 080°11'0 0.0
2014-Sep-19 15:25N 25°47' W 080°11'0 0.0
2014-Sep-19 14:28N 25°47' W 080°11'0 0.0
2014-Sep-19 13:31N 25°47' W 080°11'0 0.0
2014-Sep-19 12:05N 25°47' W 080°11'2 0.1
2014-Sep-18 12:15N 25°46' W 080°09'1 0.1
2014-Sep-17 11:25N 25°46' W 080°10'0 0.1
2014-Sep-17 07:13N 25°46' W 080°11'2 0.1
2014-Sep-16 17:26N 25°46' W 080°09'1 1.0
2014-Sep-16 16:23N 25°47' W 080°10'0 0.0
2014-Sep-16 15:16N 25°47' W 080°10'0 0.0
2014-Sep-16 10:32N 25°47' W 080°10'0 0.0
2014-Sep-16 09:28N 25°47' W 080°10'0 0.0
2014-Sep-16 08:16N 25°47' W 080°10'0 0.0
2014-Sep-16 07:33N 25°47' W 080°10'0 0.0
2014-Sep-16 05:15N 25°47' W 080°10'0 0.0
2014-Sep-16 04:28N 25°47' W 080°10'0 0.0
2014-Sep-16 03:32N 25°47' W 080°10'0 0.0
2014-Sep-16 02:06N 25°47' W 080°10'0 0.0
2014-Sep-16 00:09N 25°47' W 080°10'0 0.0
2014-Sep-15 23:04N 25°47' W 080°10'2 2.9
2014-Sep-15 22:13N 25°46' W 080°07'3 0.7
2014-Sep-15 18:26N 25°47' W 080°10'0 0.0
2014-Sep-15 13:19N 25°47' W 080°10'2 0.2
2014-Sep-14 22:33N 25°46' W 080°08'3 0.5
2014-Sep-14 17:12N 25°47' W 080°10'0 0.0
2014-Sep-14 16:33N 25°47' W 080°10'0 0.0
2014-Sep-14 15:32N 25°47' W 080°10'0 0.0
2014-Sep-14 14:32N 25°47' W 080°10'0 0.0
2014-Sep-14 13:21N 25°47' W 080°10'0 0.0
2014-Sep-14 12:33N 25°47' W 080°10'1 0.5
2014-Sep-14 11:10N 25°46' W 080°10'1 1.6
2014-Sep-14 10:19N 25°46' W 080°09'1 0.1
2014-Sep-13 17:18N 25°47' W 080°10'  

Dump ship's entire track history